createdAt,value
2018-11-25T00:01:07.027Z,49.07
2018-11-25T00:06:09.813Z,50.87
2018-11-25T00:11:12.446Z,49.77
2018-11-25T00:16:15.108Z,48.27
2018-11-25T00:21:17.698Z,49.37
2018-11-25T00:26:20.286Z,49.77
2018-11-25T00:31:22.876Z,48.13
2018-11-25T00:36:25.475Z,47.83
2018-11-25T00:41:28.114Z,47.43
2018-11-25T00:46:30.713Z,50.33
2018-11-25T00:51:33.351Z,49.37
2018-11-25T00:56:35.942Z,46.80
2018-11-25T01:01:38.598Z,46.60
2018-11-25T01:06:41.162Z,48.60
2018-11-25T01:11:43.774Z,45.43
2018-11-25T01:16:46.372Z,48.00
2018-11-25T01:21:48.990Z,46.63
2018-11-25T01:26:51.558Z,46.43
2018-11-25T01:31:54.155Z,46.77
2018-11-25T01:36:56.746Z,47.23
2018-11-25T01:41:59.346Z,47.20
2018-11-25T01:47:01.935Z,46.13
2018-11-25T01:52:04.708Z,47.63
2018-11-25T01:57:07.625Z,46.43
2018-11-25T02:02:10.342Z,45.93
2018-11-25T02:07:12.898Z,46.60
2018-11-25T02:12:15.473Z,45.33
2018-11-25T02:17:18.031Z,47.83
2018-11-25T02:22:20.605Z,45.77
2018-11-25T02:27:23.200Z,47.50
2018-11-25T02:32:25.853Z,46.00
2018-11-25T02:37:28.423Z,44.93
2018-11-25T02:42:30.990Z,45.20
2018-11-25T02:47:33.624Z,46.80
2018-11-25T02:52:36.217Z,44.73
2018-11-25T02:57:38.914Z,45.53
2018-11-25T03:02:41.546Z,44.83
2018-11-25T03:07:44.162Z,46.13
2018-11-25T03:12:46.715Z,45.97
2018-11-25T03:17:49.290Z,45.93
2018-11-25T03:22:51.891Z,44.50
2018-11-25T03:27:54.474Z,44.20
2018-11-25T03:32:57.070Z,45.40
2018-11-25T03:37:59.692Z,45.47
2018-11-25T03:43:02.340Z,44.43
2018-11-25T03:48:04.975Z,45.47
2018-11-25T03:53:07.626Z,47.03
2018-11-25T03:58:10.231Z,44.33
2018-11-25T04:03:12.836Z,43.40
2018-11-25T04:08:15.431Z,44.07
2018-11-25T04:13:18.044Z,42.83
2018-11-25T04:18:20.610Z,42.33
2018-11-25T04:23:23.226Z,43.03
2018-11-25T04:28:25.827Z,41.67
2018-11-25T04:33:28.456Z,42.63
2018-11-25T04:38:31.106Z,43.07
2018-11-25T04:43:33.742Z,41.33
2018-11-25T04:48:36.349Z,42.77
2018-11-25T04:53:38.946Z,41.07
2018-11-25T04:58:41.550Z,39.90
2018-11-25T05:03:44.246Z,40.17
2018-11-25T05:08:46.833Z,40.40
2018-11-25T05:13:49.499Z,40.87
2018-11-25T05:18:52.139Z,40.77
2018-11-25T05:23:54.725Z,42.60
2018-11-25T05:28:57.304Z,41.53
2018-11-25T05:33:59.914Z,40.97
2018-11-25T05:39:03.174Z,42.10
2018-11-25T05:44:05.809Z,41.73
2018-11-25T05:49:08.423Z,42.67
2018-11-25T05:54:11.235Z,44.00
2018-11-25T05:59:13.878Z,49.17
2018-11-25T06:04:16.494Z,47.63
2018-11-25T06:09:19.086Z,48.40
2018-11-25T06:14:21.691Z,47.93
2018-11-25T06:19:24.302Z,48.63
2018-11-25T06:24:26.867Z,47.10
2018-11-25T06:29:29.463Z,49.10
2018-11-25T06:34:32.035Z,47.23
2018-11-25T06:39:34.696Z,46.30
2018-11-25T06:44:37.410Z,48.23
2018-11-25T06:49:39.961Z,46.20
2018-11-25T06:54:42.571Z,45.60
2018-11-25T06:59:45.318Z,46.73
2018-11-25T07:04:47.923Z,45.03
2018-11-25T07:09:50.504Z,43.90
2018-11-25T07:14:54.231Z,42.37
2018-11-25T07:19:56.859Z,41.83
2018-11-25T07:24:59.559Z,42.43
2018-11-25T07:30:07.643Z,43.17
2018-11-25T07:35:06.860Z,40.10
2018-11-25T07:40:15.900Z,40.47
2018-11-25T07:45:20.858Z,39.63
2018-11-25T07:50:23.468Z,40.47
2018-11-25T07:55:26.034Z,40.60
2018-11-25T08:00:28.632Z,38.80
2018-11-25T08:05:31.243Z,39.80
2018-11-25T08:10:33.927Z,39.20
2018-11-25T08:15:36.632Z,40.37
2018-11-25T08:20:39.210Z,38.67
2018-11-25T08:25:41.832Z,38.47
2018-11-25T08:30:44.394Z,39.17
2018-11-25T08:35:47.521Z,39.00
2018-11-25T08:40:50.337Z,37.70
2018-11-25T08:45:52.989Z,40.50
2018-11-25T08:50:55.630Z,39.63
2018-11-25T08:55:58.290Z,40.47
2018-11-25T09:01:00.954Z,39.67
2018-11-25T09:06:03.642Z,39.20
2018-11-25T09:11:06.207Z,38.97
2018-11-25T09:16:09.851Z,39.97
2018-11-25T09:21:12.371Z,39.73
2018-11-25T09:26:14.986Z,40.20
2018-11-25T09:31:17.518Z,40.83
2018-11-25T09:36:20.130Z,50.67
2018-11-25T09:41:22.711Z,39.90
2018-11-25T09:46:25.347Z,40.13
2018-11-25T09:51:27.989Z,38.33
2018-11-25T09:56:30.566Z,38.73
2018-11-25T10:01:33.198Z,38.70
2018-11-25T10:06:35.783Z,37.87
2018-11-25T10:11:38.401Z,39.43
2018-11-25T10:16:41.030Z,40.43
2018-11-25T10:21:43.596Z,40.10
2018-11-25T10:26:46.199Z,39.63
2018-11-25T10:31:48.766Z,38.73
2018-11-25T10:36:52.411Z,40.67
2018-11-25T10:41:54.996Z,37.77
2018-11-25T10:46:57.663Z,36.77
2018-11-25T10:52:00.306Z,37.23
2018-11-25T10:57:02.920Z,38.07
2018-11-25T11:03:08.900Z,38.83
2018-11-25T11:08:11.524Z,38.83
2018-11-25T11:13:14.077Z,38.13
2018-11-25T11:18:16.656Z,36.47
2018-11-25T11:23:19.296Z,34.50
2018-11-25T11:28:22.036Z,35.20
2018-11-25T11:33:25.235Z,34.97
2018-11-25T11:38:27.905Z,33.60
2018-11-25T11:43:30.495Z,33.80
2018-11-25T11:48:33.170Z,32.97
2018-11-25T11:53:35.742Z,34.57
2018-11-25T11:58:38.312Z,33.50
2018-11-25T12:03:41.018Z,33.33
2018-11-25T12:08:43.692Z,33.77
2018-11-25T12:13:46.275Z,34.70
2018-11-25T12:18:48.963Z,35.43
2018-11-25T12:23:51.635Z,36.70
2018-11-25T12:28:54.218Z,36.00
2018-11-25T12:33:56.891Z,36.27
2018-11-25T12:38:59.710Z,35.57
2018-11-25T12:44:02.782Z,37.90
2018-11-25T12:49:05.405Z,38.43
2018-11-25T12:54:08.297Z,36.70
2018-11-25T12:59:10.866Z,37.30
2018-11-25T13:04:13.499Z,38.57
2018-11-25T13:09:16.126Z,38.33
2018-11-25T13:14:18.660Z,40.27
2018-11-25T13:19:21.421Z,40.33
2018-11-25T13:24:24.091Z,41.53
2018-11-25T13:29:27.824Z,41.73
2018-11-25T13:34:30.712Z,40.10
2018-11-25T13:39:33.839Z,43.03
2018-11-25T13:44:41.447Z,42.63
2018-11-25T13:49:44.153Z,43.00
2018-11-25T13:54:47.077Z,43.23
2018-11-25T13:59:50.056Z,44.13
2018-11-25T14:04:52.950Z,47.17
2018-11-25T14:09:55.677Z,47.80
2018-11-25T14:14:58.512Z,48.53
2018-11-25T14:20:01.922Z,50.93
2018-11-25T14:25:08.930Z,49.40
2018-11-25T14:30:16.268Z,50.80
2018-11-25T14:35:18.978Z,50.40
2018-11-25T14:40:21.604Z,49.80
2018-11-25T14:45:24.203Z,50.90
2018-11-25T14:50:26.945Z,50.57
2018-11-25T14:55:29.562Z,49.87
2018-11-25T15:00:32.242Z,50.53
2018-11-25T15:05:39.266Z,49.47
2018-11-25T15:10:41.854Z,49.73
2018-11-25T15:15:44.446Z,50.87
2018-11-25T15:20:47.042Z,52.93
2018-11-25T15:25:53.019Z,50.17
2018-11-25T15:30:55.614Z,51.17
2018-11-25T15:35:58.278Z,50.30
2018-11-25T15:41:01.015Z,50.87
2018-11-25T15:46:03.703Z,52.27
2018-11-25T15:51:06.299Z,50.53
2018-11-25T15:56:09.603Z,53.00
2018-11-25T16:01:12.447Z,51.03
2018-11-25T16:06:24.733Z,49.90
2018-11-25T16:11:27.352Z,53.20
2018-11-25T16:16:30.291Z,53.33
2018-11-25T16:21:32.987Z,54.40
2018-11-25T16:26:37.306Z,52.03
2018-11-25T16:31:39.952Z,52.27
2018-11-25T16:36:42.568Z,51.50
2018-11-25T16:41:45.248Z,53.87
2018-11-25T16:46:47.827Z,49.50
2018-11-25T16:51:50.455Z,50.17
2018-11-25T16:56:53.162Z,52.30
2018-11-25T17:01:55.802Z,52.60
2018-11-25T17:06:58.525Z,53.13
2018-11-25T17:12:01.148Z,53.23
2018-11-25T17:17:03.742Z,55.77
2018-11-25T17:22:06.347Z,52.17
2018-11-25T17:27:09.016Z,52.40
2018-11-25T17:32:11.895Z,52.53
2018-11-25T17:37:14.464Z,54.07
2018-11-25T17:42:17.092Z,51.23
2018-11-25T17:47:19.666Z,53.93
2018-11-25T17:52:22.351Z,54.20
2018-11-25T17:57:24.849Z,52.50
2018-11-25T18:02:27.399Z,49.53
2018-11-25T18:07:30.003Z,46.50
2018-11-25T18:12:33.511Z,45.17
2018-11-25T18:17:36.058Z,43.07
2018-11-25T18:22:44.140Z,43.50
2018-11-25T18:27:48.060Z,47.33
2018-11-25T18:32:50.630Z,46.40
2018-11-25T18:37:53.218Z,46.80
2018-11-25T18:42:55.825Z,48.73
2018-11-25T18:47:58.836Z,47.13
2018-11-25T18:53:01.426Z,45.60
2018-11-25T18:58:04.037Z,46.40
2018-11-25T19:03:06.687Z,46.50
2018-11-25T19:08:09.229Z,45.57
2018-11-25T19:13:11.842Z,44.37
2018-11-25T19:18:14.840Z,44.70
2018-11-25T19:23:17.844Z,45.87
2018-11-25T19:28:20.950Z,45.03
2018-11-25T19:33:23.956Z,46.33
2018-11-25T19:38:27.059Z,46.07
2018-11-25T19:43:30.086Z,46.10
2018-11-25T19:48:33.066Z,44.37
2018-11-25T19:58:59.152Z,44.93
2018-11-25T20:04:02.148Z,45.90
2018-11-25T20:09:09.054Z,42.40
2018-11-25T20:14:12.251Z,41.70
2018-11-25T20:19:15.255Z,39.93
2018-11-25T20:24:17.952Z,40.20
2018-11-25T20:29:20.591Z,38.50
2018-11-25T20:34:23.281Z,37.67
2018-11-25T20:39:31.584Z,37.13
2018-11-25T20:44:34.238Z,37.87
2018-11-25T20:49:36.823Z,37.43
2018-11-25T20:54:39.386Z,34.17
2018-11-25T20:59:42.029Z,33.13
2018-11-25T21:04:44.768Z,31.53
2018-11-25T21:09:47.364Z,32.90
2018-11-25T21:14:49.930Z,34.67
2018-11-25T21:19:52.524Z,34.10
2018-11-25T21:24:55.198Z,34.03
2018-11-25T21:29:57.772Z,34.00
2018-11-25T21:35:00.347Z,34.87
2018-11-25T21:40:06.163Z,33.27
2018-11-25T21:45:10.916Z,33.93
2018-11-25T21:50:20.652Z,33.10
2018-11-25T21:55:24.078Z,30.37
2018-11-25T22:00:26.647Z,30.77
2018-11-25T22:05:29.233Z,30.27
2018-11-25T22:10:31.805Z,30.03
2018-11-25T22:15:34.431Z,30.47
2018-11-25T22:20:37.063Z,30.90
2018-11-25T22:25:39.626Z,29.37
2018-11-25T22:30:42.310Z,30.17
2018-11-25T22:35:44.964Z,29.30
2018-11-25T22:40:47.510Z,29.13
2018-11-25T22:45:50.114Z,30.70
2018-11-25T22:50:52.735Z,30.70
2018-11-25T22:55:55.435Z,30.93
2018-11-25T23:00:58.071Z,31.03
2018-11-25T23:06:18.316Z,29.93
2018-11-25T23:11:20.896Z,31.33
2018-11-25T23:16:23.458Z,32.87
2018-11-25T23:21:26.058Z,33.40
2018-11-25T23:26:28.656Z,33.80
2018-11-25T23:31:31.219Z,33.47
2018-11-25T23:36:34.410Z,32.97
2018-11-25T23:41:37.719Z,32.97
2018-11-25T23:46:40.316Z,35.67
2018-11-25T23:51:43.805Z,34.73
2018-11-25T23:56:45.482Z,34.83
